Time;durP1;ratioP1;P1;durP2;ratioP2;P2;SDS_P1;SDS_P2;PMS_P1;PMS_P2;Temp;Humidity;BMP_temperature;BMP_pressure;BME280_temperature;BME280_humidity;BME280_pressure;Samples;Min_cycle;Max_cycle;Signal;HPM_P1;HPM_P2
2023/10/23 00:01:40;;;;;;;6.38;3.00;;;18.50;94.70;;;;;;5031075;28;20025;-81
2023/10/23 00:04:07;;;;;;;6.97;3.63;;;18.50;94.70;;;;;;5032890;28;20057;-82
2023/10/23 00:06:33;;;;;;;5.20;3.00;;;18.50;94.70;;;;;;5032827;28;20401;-82
2023/10/23 00:08:59;;;;;;;5.13;3.10;;;18.50;94.80;;;;;;5034515;28;20025;-82
2023/10/23 00:11:30;;;;;;;7.13;3.22;;;18.50;94.80;;;;;;5031684;28;20063;-82
2023/10/23 00:13:56;;;;;;;5.13;2.97;;;18.50;94.70;;;;;;5032756;28;20498;-81
2023/10/23 00:16:22;;;;;;;5.72;3.25;;;18.50;94.70;;;;;;5033150;28;20060;-82
2023/10/23 00:18:52;;;;;;;6.38;2.97;;;18.50;94.70;;;;;;5024199;28;20090;-83
2023/10/23 00:21:19;;;;;;;5.22;3.20;;;18.50;94.70;;;;;;5032738;28;20025;-83
2023/10/23 00:23:44;;;;;;;5.43;2.63;;;18.50;94.80;;;;;;5031042;28;20441;-83
2023/10/23 00:26:10;;;;;;;7.70;3.15;;;18.50;94.80;;;;;;5031998;28;20029;-84
2023/10/23 00:28:36;;;;;;;7.60;3.10;;;18.50;94.70;;;;;;5033603;28;20033;-81
2023/10/23 00:31:01;;;;;;;5.10;3.17;;;18.50;94.70;;;;;;5036578;28;20042;-81
2023/10/23 00:33:27;;;;;;;4.00;3.10;;;18.60;94.80;;;;;;5035812;28;20037;-81
2023/10/23 00:35:54;;;;;;;5.35;3.70;;;18.50;94.80;;;;;;5036798;28;20036;-82
2023/10/23 00:38:20;;;;;;;5.10;3.10;;;18.40;94.70;;;;;;5045372;28;20044;-81
2023/10/23 00:40:46;;;;;;;6.63;3.13;;;18.40;94.80;;;;;;5036223;28;20480;-81
2023/10/23 00:43:19;;;;;;;9.25;4.10;;;18.30;94.90;;;;;;5032540;28;20113;-81
2023/10/23 00:45:51;;;;;;;6.50;2.83;;;18.20;95.20;;;;;;5034869;28;20029;-81
2023/10/23 00:48:20;;;;;;;6.90;3.22;;;18.10;95.20;;;;;;5035174;28;20032;-81
2023/10/23 00:50:47;;;;;;;4.72;2.72;;;18.00;95.30;;;;;;5035908;28;20064;-82
2023/10/23 00:53:13;;;;;;;5.40;3.35;;;18.10;95.30;;;;;;5031758;28;20034;-81
2023/10/23 00:55:40;;;;;;;3.83;3.05;;;18.10;95.30;;;;;;5036181;28;20112;-80
2023/10/23 00:58:06;;;;;;;5.78;2.80;;;18.10;95.30;;;;;;5035538;28;20489;-80
2023/10/23 01:00:34;;;;;;;4.38;2.78;;;18.10;95.30;;;;;;5035711;28;20033;-80
2023/10/23 01:03:00;;;;;;;5.90;3.25;;;18.10;95.30;;;;;;5026787;28;20033;-80
2023/10/23 01:05:25;;;;;;;5.13;3.03;;;18.20;95.30;;;;;;5038665;28;20029;-80
2023/10/23 01:07:51;;;;;;;4.15;2.92;;;18.20;95.30;;;;;;5034652;28;20032;-80
2023/10/23 01:10:17;;;;;;;6.28;3.47;;;18.20;95.30;;;;;;5037211;28;20026;-81
2023/10/23 01:12:43;;;;;;;5.15;2.90;;;18.20;95.30;;;;;;5034787;28;20041;-81
2023/10/23 01:15:09;;;;;;;4.18;2.90;;;18.20;95.30;;;;;;5030064;28;20026;-81
2023/10/23 01:17:35;;;;;;;4.30;2.75;;;18.20;95.20;;;;;;5019124;28;20504;-81
2023/10/23 01:20:00;;;;;;;5.32;2.90;;;18.20;95.30;;;;;;5037467;28;20035;-81
2023/10/23 01:22:26;;;;;;;5.25;3.00;;;18.10;95.30;;;;;;5034975;28;20040;-81
2023/10/23 01:24:52;;;;;;;6.32;3.05;;;18.10;95.30;;;;;;5035671;28;20094;-81
2023/10/23 01:27:18;;;;;;;6.70;2.47;;;18.10;95.30;;;;;;5032546;28;20042;-81
2023/10/23 01:29:44;;;;;;;5.72;3.30;;;18.20;95.30;;;;;;5026075;28;20040;-81
2023/10/23 01:32:10;;;;;;;4.57;2.97;;;18.20;95.30;;;;;;5035270;28;20128;-82
2023/10/23 01:34:36;;;;;;;6.32;2.63;;;18.10;95.30;;;;;;5038829;28;20083;-82
2023/10/23 01:37:02;;;;;;;7.65;3.35;;;18.00;95.30;;;;;;5034337;28;20189;-81
2023/10/23 01:39:28;;;;;;;5.40;3.38;;;18.00;95.40;;;;;;5022369;28;20025;-81
2023/10/23 01:41:53;;;;;;;6.80;3.58;;;18.00;95.40;;;;;;5035180;28;20025;-81
2023/10/23 01:44:19;;;;;;;6.28;3.35;;;18.00;95.40;;;;;;5034424;28;20485;-82
2023/10/23 01:46:45;;;;;;;5.70;2.88;;;18.00;95.40;;;;;;5033080;28;20363;-82
2023/10/23 01:49:10;;;;;;;6.40;3.28;;;18.00;95.40;;;;;;5034479;28;20041;-81
2023/10/23 01:51:36;;;;;;;4.15;2.90;;;18.00;95.40;;;;;;5032469;28;20091;-81
2023/10/23 01:54:02;;;;;;;4.25;2.67;;;17.90;95.50;;;;;;5031866;28;20034;-82
2023/10/23 01:56:27;;;;;;;4.60;2.72;;;18.00;95.50;;;;;;5030814;28;20019;-81
2023/10/23 01:58:53;;;;;;;4.55;2.60;;;18.00;95.40;;;;;;5025396;28;20527;-82
2023/10/23 02:01:23;;;;;;;4.57;2.88;;;18.00;95.40;;;;;;5034116;28;20080;-83
2023/10/23 02:03:50;;;;;;;4.85;2.67;;;18.00;95.40;;;;;;5032979;28;20377;-82
2023/10/23 02:06:16;;;;;;;5.15;3.20;;;18.00;95.40;;;;;;5028968;28;20032;-82
2023/10/23 02:08:42;;;;;;;5.55;3.10;;;18.00;95.40;;;;;;5034523;28;20033;-82
2023/10/23 02:11:08;;;;;;;4.97;2.70;;;18.00;95.40;;;;;;5034379;28;20040;-83
2023/10/23 02:13:34;;;;;;;4.63;2.60;;;18.00;95.40;;;;;;5034831;28;20469;-83
2023/10/23 02:16:00;;;;;;;3.88;2.42;;;18.00;95.40;;;;;;5027350;28;20033;-81
2023/10/23 02:18:26;;;;;;;4.47;2.30;;;17.90;95.40;;;;;;5033803;28;20038;-82
2023/10/23 02:20:52;;;;;;;3.83;2.50;;;17.90;95.40;;;;;;5034052;28;20029;-83
2023/10/23 02:23:18;;;;;;;8.27;3.05;;;17.90;95.40;;;;;;5034003;28;20022;-83
2023/10/23 02:25:43;;;;;;;7.22;3.10;;;17.80;95.40;;;;;;5033605;28;20026;-82
2023/10/23 02:28:09;;;;;;;3.92;2.35;;;17.90;95.50;;;;;;5034297;28;20044;-82
2023/10/23 02:30:38;;;;;;;5.75;2.53;;;17.90;95.50;;;;;;5034280;28;20025;-82
2023/10/23 02:33:03;;;;;;;5.47;2.38;;;17.90;95.50;;;;;;5030089;28;20041;-82
2023/10/23 02:35:29;;;;;;;6.40;2.55;;;17.80;95.40;;;;;;5034322;28;20033;-81
2023/10/23 02:37:55;;;;;;;3.67;2.47;;;17.70;95.50;;;;;;5034021;28;20041;-81
2023/10/23 02:40:21;;;;;;;4.70;2.47;;;17.70;95.60;;;;;;5034450;28;20056;-82
2023/10/23 02:42:47;;;;;;;4.78;2.30;;;17.60;95.60;;;;;;5031918;28;20373;-81
2023/10/23 02:45:13;;;;;;;5.95;2.50;;;17.60;95.70;;;;;;5029889;28;20036;-81
2023/10/23 02:47:39;;;;;;;4.93;2.78;;;17.50;95.70;;;;;;5032644;28;20038;-82
2023/10/23 02:50:06;;;;;;;7.85;2.53;;;17.50;95.80;;;;;;5034257;28;20037;-82
2023/10/23 02:52:32;;;;;;;5.72;2.20;;;17.50;95.80;;;;;;5025039;28;20034;-81
2023/10/23 02:54:58;;;;;;;3.88;2.03;;;17.40;95.90;;;;;;5032626;28;20075;-82
2023/10/23 02:57:23;;;;;;;4.03;2.05;;;17.40;96.00;;;;;;5028956;28;20033;-81
2023/10/23 02:59:49;;;;;;;3.97;2.28;;;17.40;96.00;;;;;;5033899;28;20037;-81
2023/10/23 03:02:16;;;;;;;4.85;2.40;;;17.40;96.00;;;;;;5021634;28;20056;-81
2023/10/23 03:04:42;;;;;;;5.70;2.15;;;17.40;96.00;;;;;;5031290;28;20075;-82
2023/10/23 03:07:09;;;;;;;3.53;2.28;;;17.40;96.00;;;;;;5032405;28;20044;-82
2023/10/23 03:09:35;;;;;;;5.32;2.17;;;17.40;96.00;;;;;;5032722;28;20033;-81
2023/10/23 03:12:00;;;;;;;4.03;2.17;;;17.50;96.00;;;;;;5029421;28;20041;-81
2023/10/23 03:14:26;;;;;;;3.83;2.10;;;17.50;96.00;;;;;;5028757;28;20040;-81
2023/10/23 03:16:52;;;;;;;3.92;2.20;;;17.50;96.00;;;;;;5033396;28;20484;-81
2023/10/23 03:19:19;;;;;;;3.28;2.20;;;17.40;96.00;;;;;;5033934;28;20044;-81
2023/10/23 03:21:45;;;;;;;3.50;1.92;;;17.40;96.00;;;;;;5031665;28;20021;-81
2023/10/23 03:24:11;;;;;;;4.38;2.25;;;17.40;96.00;;;;;;5027929;28;20393;-81
2023/10/23 03:26:36;;;;;;;4.93;2.35;;;17.40;96.00;;;;;;5033193;28;20365;-81
2023/10/23 03:29:03;;;;;;;3.95;2.22;;;17.30;96.00;;;;;;5033354;28;20025;-81
2023/10/23 03:31:32;;;;;;;4.68;1.65;;;17.30;96.10;;;;;;5031987;28;20041;-81
2023/10/23 03:33:58;;;;;;;4.43;2.23;;;17.30;96.10;;;;;;5031463;28;20033;-82
2023/10/23 03:36:24;;;;;;;3.60;2.08;;;17.30;96.40;;;;;;5031639;28;20112;-82
2023/10/23 03:38:50;;;;;;;2.80;1.77;;;17.30;96.20;;;;;;5032995;28;20160;-82
2023/10/23 03:41:15;;;;;;;3.03;1.67;;;17.20;96.20;;;;;;5032902;28;20017;-81
2023/10/23 03:43:41;;;;;;;3.80;1.88;;;17.20;96.30;;;;;;5024227;28;20030;-82
2023/10/23 03:46:07;;;;;;;4.10;1.80;;;17.20;96.50;;;;;;5033090;28;20040;-81
2023/10/23 03:48:35;;;;;;;4.93;1.90;;;17.20;96.30;;;;;;5032637;28;20029;-81
2023/10/23 03:51:01;;;;;;;3.47;1.98;;;17.20;96.40;;;;;;5032971;28;20050;-81
2023/10/23 03:53:27;;;;;;;6.45;2.33;;;17.10;96.40;;;;;;5035944;28;20025;-80
2023/10/23 03:55:53;;;;;;;2.60;1.80;;;17.10;96.60;;;;;;5032978;28;20459;-81
2023/10/23 03:58:19;;;;;;;4.43;1.83;;;17.10;96.40;;;;;;5032661;28;20030;-80
2023/10/23 04:00:44;;;;;;;6.03;2.15;;;17.20;96.40;;;;;;5032749;28;20038;-81
2023/10/23 04:03:11;;;;;;;7.13;2.35;;;17.20;96.30;;;;;;5031581;28;20517;-82
2023/10/23 04:05:40;;;;;;;3.33;2.05;;;17.20;96.30;;;;;;5032179;28;20059;-81
2023/10/23 04:08:06;;;;;;;5.00;2.33;;;17.20;96.30;;;;;;5031972;28;20022;-81
2023/10/23 04:10:32;;;;;;;5.80;2.10;;;17.20;96.20;;;;;;5031434;28;20045;-82
2023/10/23 04:12:58;;;;;;;4.45;1.77;;;17.20;96.20;;;;;;5031585;28;20381;-82
2023/10/23 04:15:24;;;;;;;6.18;2.28;;;17.20;96.20;;;;;;5032973;28;20033;-82
2023/10/23 04:17:50;;;;;;;5.43;1.85;;;17.20;96.20;;;;;;5035143;28;20029;-82
2023/10/23 04:20:16;;;;;;;3.85;1.80;;;17.20;96.20;;;;;;5032294;28;20037;-81
2023/10/23 04:22:43;;;;;;;3.10;1.83;;;17.10;96.30;;;;;;5030870;28;20113;-82
2023/10/23 04:25:09;;;;;;;2.80;1.65;;;17.10;96.30;;;;;;5030745;28;20067;-81
2023/10/23 04:27:35;;;;;;;5.88;2.20;;;17.00;96.30;;;;;;5031967;28;20105;-81
2023/10/23 04:30:01;;;;;;;4.43;1.75;;;17.10;96.40;;;;;;5032656;28;20034;-82
2023/10/23 04:32:27;;;;;;;5.80;2.30;;;17.00;96.40;;;;;;5033526;28;20042;-81
2023/10/23 04:34:53;;;;;;;6.68;1.88;;;17.00;96.40;;;;;;5030567;28;20029;-81
2023/10/23 04:37:19;;;;;;;3.05;1.55;;;17.10;96.40;;;;;;5030884;28;20488;-81
2023/10/23 04:39:44;;;;;;;2.90;1.70;;;17.10;96.40;;;;;;5032239;28;20112;-81
2023/10/23 04:42:10;;;;;;;4.88;1.70;;;17.10;96.30;;;;;;5031696;28;20539;-80
2023/10/23 04:44:36;;;;;;;2.78;1.63;;;17.10;96.30;;;;;;5033944;28;20037;-80
2023/10/23 04:47:02;;;;;;;4.63;1.67;;;17.10;96.30;;;;;;5027518;28;20021;-80
2023/10/23 04:49:28;;;;;;;3.80;1.50;;;17.10;96.40;;;;;;5032162;28;20041;-80
2023/10/23 04:51:54;;;;;;;5.72;2.65;;;17.00;96.40;;;;;;5031540;28;20640;-81
2023/10/23 04:54:19;;;;;;;6.57;2.03;;;17.00;96.40;;;;;;5032879;28;20033;-81
2023/10/23 04:56:46;;;;;;;4.68;1.90;;;17.00;96.40;;;;;;5032173;28;20105;-81
2023/10/23 04:59:12;;;;;;;4.90;2.65;;;17.00;96.40;;;;;;5033256;28;20022;-81
2023/10/23 05:01:38;;;;;;;2.35;1.40;;;17.00;96.40;;;;;;5032197;28;20039;-81
2023/10/23 05:04:04;;;;;;;4.80;1.90;;;17.00;96.40;;;;;;5031657;28;20041;-82
2023/10/23 05:06:30;;;;;;;3.33;1.83;;;17.00;96.40;;;;;;5032269;28;20092;-81
2023/10/23 05:08:55;;;;;;;5.00;2.28;;;17.00;96.40;;;;;;5031566;28;20030;-81
2023/10/23 05:11:21;;;;;;;4.07;2.13;;;17.00;96.40;;;;;;5031691;28;20021;-82
2023/10/23 05:13:47;;;;;;;5.55;1.98;;;17.00;96.40;;;;;;5029098;28;20037;-81
2023/10/23 05:16:12;;;;;;;4.43;1.40;;;17.00;96.40;;;;;;5033896;28;20025;-81
2023/10/23 05:18:39;;;;;;;3.90;2.13;;;17.00;96.40;;;;;;5032290;28;20497;-81
2023/10/23 05:21:09;;;;;;;5.28;1.50;;;17.00;96.40;;;;;;5032913;28;20374;-80
2023/10/23 05:23:36;;;;;;;2.55;1.70;;;17.10;96.40;;;;;;5035462;28;20358;-80
2023/10/23 05:26:02;;;;;;;4.13;2.17;;;17.10;96.30;;;;;;5034759;28;20021;-81
2023/10/23 05:28:28;;;;;;;13.52;2.95;;;17.20;96.30;;;;;;5035262;28;20024;-80
2023/10/23 05:30:54;;;;;;;5.95;1.67;;;17.20;96.20;;;;;;5031770;28;20041;-80
2023/10/23 05:33:19;;;;;;;4.90;1.95;;;17.20;96.20;;;;;;5042893;28;20037;-80
2023/10/23 05:35:46;;;;;;;3.88;1.85;;;17.20;96.20;;;;;;5051998;28;20033;-79
2023/10/23 05:38:12;;;;;;;2.47;1.45;;;17.20;96.20;;;;;;5037680;28;20591;-80
2023/10/23 05:40:37;;;;;;;3.60;1.48;;;17.30;96.20;;;;;;5034294;28;20050;-80
2023/10/23 05:43:03;;;;;;;3.15;1.50;;;17.30;96.10;;;;;;5038262;28;20034;-80
2023/10/23 05:45:29;;;;;;;3.40;1.70;;;17.30;96.00;;;;;;5034839;28;20045;-80
2023/10/23 05:47:55;;;;;;;2.28;1.35;;;17.30;96.00;;;;;;5033995;28;20057;-80
2023/10/23 05:50:20;;;;;;;3.88;1.40;;;17.30;96.00;;;;;;5033716;28;20021;-80
2023/10/23 05:52:46;;;;;;;4.55;1.42;;;17.20;95.90;;;;;;5032341;28;20116;-80
2023/10/23 05:55:12;;;;;;;3.28;1.75;;;17.20;96.00;;;;;;5035630;28;20028;-80
2023/10/23 05:57:37;;;;;;;6.30;1.88;;;17.20;96.00;;;;;;5039248;28;20029;-79
2023/10/23 06:00:03;;;;;;;3.60;1.90;;;17.20;96.00;;;;;;5047761;28;20421;-79
2023/10/23 06:02:32;;;;;;;3.45;1.90;;;17.20;96.00;;;;;;5025718;28;20105;-78
2023/10/23 06:04:58;;;;;;;4.63;1.60;;;17.30;96.10;;;;;;5035247;28;20025;-88
2023/10/23 06:07:24;;;;;;;7.22;2.15;;;17.30;96.00;;;;;;5033447;28;20048;-79
2023/10/23 06:09:49;;;;;;;4.85;1.90;;;17.30;95.90;;;;;;5039967;28;20523;-80
2023/10/23 06:12:15;;;;;;;3.42;1.50;;;17.30;95.80;;;;;;5043815;28;20068;-80
2023/10/23 06:14:41;;;;;;;7.00;2.03;;;17.20;95.80;;;;;;5030624;28;20039;-79
2023/10/23 06:17:08;;;;;;;2.83;1.45;;;17.20;95.90;;;;;;5031398;28;20125;-80
2023/10/23 06:19:33;;;;;;;4.43;1.60;;;17.20;96.00;;;;;;5036206;28;20041;-79
2023/10/23 06:21:59;;;;;;;4.45;2.10;;;17.30;95.90;;;;;;5027205;28;20103;-79
2023/10/23 06:24:27;;;;;;;3.50;1.77;;;17.30;95.90;;;;;;5036557;28;20067;-79
2023/10/23 06:26:53;;;;;;;4.03;1.42;;;17.30;95.90;;;;;;5034038;28;20377;-80
2023/10/23 06:29:18;;;;;;;4.03;1.88;;;17.30;95.90;;;;;;5048881;28;20549;-80
2023/10/23 06:31:44;;;;;;;4.93;1.50;;;17.20;95.90;;;;;;5036409;28;20501;-80
2023/10/23 06:34:10;;;;;;;3.72;1.73;;;17.30;96.00;;;;;;5017281;28;20026;-80
2023/10/23 06:36:40;;;;;;;9.82;1.80;;;17.30;96.00;;;;;;5029217;28;20398;-80
2023/10/23 06:39:06;;;;;;;2.85;1.88;;;17.30;96.00;;;;;;5027534;28;20026;-81
2023/10/23 06:41:32;;;;;;;5.18;1.95;;;17.20;96.00;;;;;;5023533;28;20110;-79
2023/10/23 06:43:58;;;;;;;7.53;2.40;;;17.30;96.10;;;;;;5020373;28;20025;-82
2023/10/23 06:46:23;;;;;;;5.45;1.92;;;17.40;96.10;;;;;;5027380;28;20529;-81
2023/10/23 06:48:49;;;;;;;5.50;1.83;;;17.40;96.00;;;;;;5031567;28;20030;-82
2023/10/23 06:51:15;;;;;;;5.60;2.17;;;17.40;96.00;;;;;;5021605;28;20098;-82
2023/10/23 06:53:41;;;;;;;5.28;2.00;;;17.40;96.00;;;;;;5029985;28;20446;-82
2023/10/23 06:56:08;;;;;;;3.90;1.55;;;17.50;95.90;;;;;;5027767;28;20458;-81
2023/10/23 06:58:34;;;;;;;4.15;2.05;;;17.50;95.90;;;;;;5032738;28;20034;-81
2023/10/23 07:01:07;;;;;;;1.80;1.45;;;17.40;95.60;;;;;;5031214;28;20041;-82
2023/10/23 07:03:34;;;;;;;6.35;1.80;;;17.50;95.80;;;;;;5026416;28;20078;-88
2023/10/23 07:06:04;;;;;;;7.28;2.80;;;17.50;95.80;;;;;;5024945;28;20033;-88
2023/10/23 07:08:30;;;;;;;3.33;1.67;;;17.50;95.70;;;;;;5034041;28;20022;-80
2023/10/23 07:10:55;;;;;;;4.65;1.92;;;17.50;95.70;;;;;;5032008;28;20159;-81
2023/10/23 07:13:21;;;;;;;9.60;3.97;;;17.50;95.80;;;;;;5033567;28;20500;-81
2023/10/23 07:15:47;;;;;;;8.32;4.28;;;17.60;95.80;;;;;;5034827;28;20076;-81
2023/10/23 07:18:13;;;;;;;4.93;3.13;;;17.60;95.80;;;;;;5026969;28;20519;-81
2023/10/23 07:20:39;;;;;;;7.47;3.55;;;17.70;95.80;;;;;;5022786;28;20069;-81
2023/10/23 07:23:04;;;;;;;5.90;2.90;;;17.70;95.80;;;;;;5030356;28;20025;-82
2023/10/23 07:25:31;;;;;;;8.48;3.17;;;17.80;95.60;;;;;;5029658;28;20029;-82
2023/10/23 07:27:58;;;;;;;4.43;2.67;;;17.80;95.60;;;;;;5033022;28;20022;-82
2023/10/23 07:30:24;;;;;;;2.22;1.77;;;17.80;95.50;;;;;;5033841;28;20030;-88
2023/10/23 07:32:50;;;;;;;3.08;1.70;;;17.80;95.40;;;;;;5034252;28;20045;-88
2023/10/23 07:35:16;;;;;;;3.28;1.88;;;17.90;95.40;;;;;;5034221;28;20083;-88
2023/10/23 07:37:42;;;;;;;4.32;1.90;;;17.90;95.40;;;;;;5033776;28;20026;-87
2023/10/23 07:40:08;;;;;;;5.43;1.95;;;18.00;95.30;;;;;;5034166;28;20102;-87
2023/10/23 07:42:33;;;;;;;2.65;1.35;;;18.00;95.20;;;;;;5034104;28;20209;-87
2023/10/23 07:45:00;;;;;;;4.25;2.03;;;18.00;95.10;;;;;;5034486;28;20534;-88
2023/10/23 07:47:28;;;;;;;4.22;1.42;;;18.10;95.10;;;;;;5034073;28;20105;-88
2023/10/23 07:49:54;;;;;;;7.03;1.95;;;18.20;95.00;;;;;;5033906;28;20038;-87
2023/10/23 07:52:20;;;;;;;6.03;1.63;;;18.30;95.10;;;;;;5029336;28;20029;-87
2023/10/23 07:54:45;;;;;;;4.47;1.30;;;18.40;95.00;;;;;;5031409;28;20355;-86
2023/10/23 07:57:11;;;;;;;4.93;1.92;;;18.50;95.10;;;;;;5019222;28;20029;-87
2023/10/23 07:59:37;;;;;;;5.85;1.73;;;18.60;95.10;;;;;;5014087;28;20103;-87
2023/10/23 08:02:03;;;;;;;3.38;1.35;;;18.80;94.50;;;;;;5033680;28;20043;-87
2023/10/23 08:04:28;;;;;;;8.27;1.80;;;19.00;94.70;;;;;;5032694;28;20022;-86
2023/10/23 08:06:54;;;;;;;4.57;2.05;;;19.10;94.70;;;;;;5031767;28;20025;-85
2023/10/23 08:09:21;;;;;;;2.47;1.48;;;19.20;94.40;;;;;;5033876;28;20036;-86
2023/10/23 08:11:47;;;;;;;5.28;1.90;;;19.40;93.80;;;;;;5033936;28;20022;-87
2023/10/23 08:14:12;;;;;;;3.85;1.83;;;19.30;93.40;;;;;;5034025;28;20091;-86
2023/10/23 08:16:38;;;;;;;8.13;2.17;;;19.40;93.50;;;;;;5031489;28;20061;-87
2023/10/23 08:19:04;;;;;;;6.07;1.50;;;19.50;93.50;;;;;;5031977;28;20064;-87
2023/10/23 08:21:29;;;;;;;4.93;2.28;;;19.60;93.50;;;;;;5033602;28;20386;-87
2023/10/23 08:23:58;;;;;;;3.35;1.65;;;19.60;93.20;;;;;;5033072;28;20030;-85
2023/10/23 08:26:24;;;;;;;6.68;2.17;;;19.70;93.60;;;;;;5032158;28;20093;-87
2023/10/23 08:28:50;;;;;;;5.68;1.67;;;19.80;93.10;;;;;;5029750;28;20037;-83
2023/10/23 08:31:16;;;;;;;4.40;1.75;;;20.00;93.30;;;;;;5031100;28;20053;-84
2023/10/23 08:33:42;;;;;;;6.13;2.00;;;20.10;92.90;;;;;;5033266;28;20474;-85
2023/10/23 08:36:07;;;;;;;5.20;1.50;;;20.10;92.60;;;;;;5033100;28;20032;-84
2023/10/23 08:38:33;;;;;;;3.92;1.73;;;20.20;92.90;;;;;;5033494;28;20042;-84
2023/10/23 08:41:02;;;;;;;3.50;1.20;;;20.30;92.60;;;;;;5033013;28;20032;-85
2023/10/23 08:43:29;;;;;;;6.10;1.58;;;20.40;92.90;;;;;;5033276;28;20025;-85
2023/10/23 08:45:57;;;;;;;2.80;1.30;;;20.50;92.50;;;;;;5033179;28;20397;-85
2023/10/23 08:48:23;;;;;;;5.68;1.65;;;20.60;92.30;;;;;;5033536;28;20026;-85
2023/10/23 08:50:50;;;;;;;4.28;1.48;;;20.70;92.10;;;;;;5037136;28;20044;-85
2023/10/23 08:53:17;;;;;;;2.38;1.00;;;20.80;92.60;;;;;;5036490;28;20034;-85
2023/10/23 08:55:44;;;;;;;2.90;0.90;;;21.00;92.60;;;;;;5036074;28;20026;-84
2023/10/23 08:58:13;;;;;;;6.65;1.40;;;21.20;92.40;;;;;;5050510;28;20037;-81
2023/10/23 09:00:38;;;;;;;2.97;1.08;;;21.40;92.10;;;;;;5034975;28;20495;-80
2023/10/23 09:03:05;;;;;;;2.10;1.00;;;21.60;91.80;;;;;;5036185;28;20047;-82
2023/10/23 09:05:30;;;;;;;4.95;1.20;;;21.70;91.20;;;;;;5036197;28;20021;-80
2023/10/23 09:07:56;;;;;;;2.70;1.30;;;21.80;90.90;;;;;;5036471;28;20057;-82
2023/10/23 09:10:22;;;;;;;5.05;1.10;;;21.90;90.50;;;;;;5017933;28;20068;-83
2023/10/23 09:12:57;;;;;;;11.07;2.13;;;21.90;90.40;;;;;;5016855;28;20026;-83
2023/10/23 09:15:24;;;;;;;1.00;0.73;;;21.90;90.60;;;;;;5016366;28;20022;-81
2023/10/23 09:17:51;;;;;;;2.85;0.85;;;22.00;91.10;;;;;;5025641;28;20040;-81
2023/10/23 09:20:17;;;;;;;3.38;1.30;;;22.10;91.00;;;;;;5035871;28;20074;-81
2023/10/23 09:22:52;;;;;;;5.78;1.08;;;22.30;90.90;;;;;;5035944;28;20029;-81
2023/10/23 09:25:23;;;;;;;8.55;0.85;;;22.50;90.80;;;;;;5022766;28;20013;-81
2023/10/23 09:27:49;;;;;;;2.17;0.80;;;22.70;90.70;;;;;;5034518;28;20033;-81
2023/10/23 09:30:21;;;;;;;5.40;1.35;;;22.90;90.40;;;;;;5034512;28;20507;-81
2023/10/23 09:32:51;;;;;;;3.15;0.85;;;23.10;89.30;;;;;;5033740;28;20448;-81
2023/10/23 09:35:18;;;;;;;3.00;1.30;;;23.20;89.90;;;;;;5040422;28;20128;-80
2023/10/23 09:37:44;;;;;;;3.25;1.00;;;23.30;89.70;;;;;;5035010;28;20034;-81
2023/10/23 09:40:13;;;;;;;3.67;0.88;;;23.50;89.30;;;;;;5034487;28;20033;-81
2023/10/23 09:42:40;;;;;;;2.75;1.10;;;23.60;89.00;;;;;;5029143;28;20077;-81
2023/10/23 09:45:06;;;;;;;3.50;1.00;;;23.70;86.70;;;;;;5015841;28;20481;-81
2023/10/23 09:47:32;;;;;;;5.88;1.13;;;23.70;86.80;;;;;;5028599;28;20040;-82
2023/10/23 09:49:59;;;;;;;2.88;0.95;;;23.60;87.20;;;;;;5033909;28;20026;-82
2023/10/23 09:52:26;;;;;;;3.50;1.00;;;23.70;87.30;;;;;;5034586;28;20080;-83
2023/10/23 09:55:08;;;;;;;3.42;0.95;;;23.80;86.90;;;;;;5035246;28;20061;-83
2023/10/23 09:57:33;;;;;;;4.93;1.20;;;24.00;86.40;;;;;;5031461;28;20037;-83
2023/10/23 10:00:16;;;;;;;2.95;0.70;;;24.00;84.10;;;;;;5024563;28;20373;-82
2023/10/23 10:02:51;;;;;;;4.78;1.48;;;24.00;85.00;;;;;;5027460;28;20022;-82
2023/10/23 10:05:34;;;;;;;4.03;0.90;;;24.10;85.40;;;;;;5035027;28;20036;-82
2023/10/23 10:08:03;;;;;;;2.33;0.77;;;24.30;84.90;;;;;;5033548;28;20045;-84
2023/10/23 10:10:30;;;;;;;3.13;1.20;;;24.50;84.80;;;;;;5022528;28;20029;-82
2023/10/23 10:12:56;;;;;;;3.58;1.55;;;24.70;83.70;;;;;;5034338;28;20041;-82
2023/10/23 10:15:23;;;;;;;5.18;1.60;;;24.80;80.80;;;;;;5034719;28;20057;-81
2023/10/23 10:17:50;;;;;;;5.53;1.48;;;24.70;79.60;;;;;;5032103;28;20033;-82
2023/10/23 10:20:19;;;;;;;4.72;1.20;;;24.40;79.20;;;;;;5028384;28;20092;-81
2023/10/23 10:22:49;;;;;;;4.47;1.20;;;24.20;80.70;;;;;;5020259;28;20448;-82
2023/10/23 10:25:16;;;;;;;3.17;0.98;;;24.10;80.10;;;;;;5034115;28;20097;-82
2023/10/23 10:27:42;;;;;;;3.25;0.80;;;24.00;79.60;;;;;;5027522;28;20519;-82
2023/10/23 10:30:40;;;;;;;5.80;0.85;;;23.90;81.00;;;;;;5032263;28;20064;-82
2023/10/23 10:33:24;;;;;;;3.63;1.00;;;24.10;82.50;;;;;;5030081;28;20216;-82
2023/10/23 10:35:58;;;;;;;11.65;1.38;;;24.40;82.40;;;;;;5034219;28;20478;-82
2023/10/23 10:38:25;;;;;;;1.95;0.80;;;24.70;80.60;;;;;;5033525;28;20025;-82
2023/10/23 10:40:56;;;;;;;3.13;0.70;;;24.80;78.90;;;;;;5034191;28;20113;-82
2023/10/23 10:43:23;;;;;;;4.32;1.02;;;24.90;79.40;;;;;;5034469;28;20072;-82
2023/10/23 10:45:49;;;;;;;3.08;0.90;;;25.10;76.70;;;;;;5034419;28;20037;-82
2023/10/23 10:48:15;;;;;;;2.22;0.55;;;25.20;77.60;;;;;;5034007;28;20032;-82
2023/10/23 10:50:41;;;;;;;3.78;1.13;;;25.20;76.60;;;;;;5032810;28;20499;-82
2023/10/23 10:53:12;;;;;;;1.92;0.65;;;25.30;77.20;;;;;;5027936;28;20038;-81
2023/10/23 10:55:38;;;;;;;3.25;1.05;;;25.40;76.00;;;;;;5029890;28;20068;-82
2023/10/23 10:58:05;;;;;;;2.33;0.70;;;25.60;75.60;;;;;;5030643;28;20017;-82
2023/10/23 11:00:35;;;;;;;3.67;0.85;;;25.70;75.00;;;;;;5033743;28;20041;-86
2023/10/23 11:03:02;;;;;;;3.35;1.05;;;25.80;75.00;;;;;;5032407;28;20030;-86
2023/10/23 11:05:27;;;;;;;4.50;1.40;;;25.90;75.10;;;;;;5032597;28;20029;-87
2023/10/23 11:07:53;;;;;;;3.00;1.13;;;25.90;75.00;;;;;;5028497;28;20381;-87
2023/10/23 11:10:22;;;;;;;3.80;0.85;;;26.00;74.90;;;;;;5034299;28;20025;-88
2023/10/23 11:12:50;;;;;;;2.08;1.00;;;26.10;75.00;;;;;;5033576;28;20132;-87
2023/10/23 11:15:16;;;;;;;3.28;1.08;;;26.30;75.20;;;;;;5034065;28;20025;-87
2023/10/23 11:17:42;;;;;;;2.00;0.82;;;26.40;71.80;;;;;;5030301;28;20069;-85
2023/10/23 11:20:10;;;;;;;3.33;0.90;;;26.50;72.20;;;;;;5026393;28;20033;-86
2023/10/23 11:22:41;;;;;;;2.10;0.65;;;26.50;70.50;;;;;;5033448;28;20037;-85
2023/10/23 11:25:08;;;;;;;3.90;1.00;;;26.60;71.30;;;;;;5034122;28;20458;-84
2023/10/23 11:27:35;;;;;;;3.25;0.77;;;26.90;68.20;;;;;;5033042;28;20532;-84
2023/10/23 11:30:03;;;;;;;3.40;1.00;;;27.50;70.40;;;;;;5033451;28;20047;-85
2023/10/23 11:32:29;;;;;;;1.55;0.60;;;28.30;68.60;;;;;;5033539;28;20042;-86
2023/10/23 11:35:03;;;;;;;4.95;1.17;;;29.00;66.50;;;;;;5031576;28;21751;-86
2023/10/23 11:37:33;;;;;;;3.25;0.70;;;29.60;62.70;;;;;;5033866;28;20026;-87
2023/10/23 11:40:05;;;;;;;3.90;1.05;;;29.90;63.90;;;;;;5034182;28;20032;-86
2023/10/23 11:43:01;;;;;;;3.60;1.00;;;30.30;63.70;;;;;;5033411;28;20433;-85
2023/10/23 11:45:29;;;;;;;3.22;0.70;;;30.80;63.40;;;;;;5024721;28;20100;-85
2023/10/23 11:47:55;;;;;;;1.80;0.80;;;31.30;60.40;;;;;;5024249;28;20029;-86
2023/10/23 11:50:21;;;;;;;2.05;0.60;;;31.30;59.40;;;;;;5015941;28;20072;-86
2023/10/23 11:52:48;;;;;;;1.85;0.60;;;30.90;56.80;;;;;;5030836;28;20029;-87
2023/10/23 11:55:16;;;;;;;2.22;0.63;;;30.50;58.00;;;;;;5031326;28;20037;-86
2023/10/23 11:57:46;;;;;;;4.35;0.80;;;30.20;58.40;;;;;;5030619;28;20484;-86
2023/10/23 12:00:14;;;;;;;3.25;0.77;;;29.90;57.00;;;;;;5028944;28;20095;-86
2023/10/23 12:02:42;;;;;;;2.30;0.70;;;29.70;59.40;;;;;;5030455;28;20368;-86
2023/10/23 12:05:12;;;;;;;1.92;0.63;;;29.60;59.80;;;;;;5029752;28;20040;-86
2023/10/23 12:07:48;;;;;;;3.58;0.80;;;29.60;59.20;;;;;;5033277;28;20026;-86
2023/10/23 12:10:18;;;;;;;1.90;0.68;;;29.60;56.70;;;;;;5033276;28;20480;-85
2023/10/23 12:12:45;;;;;;;1.02;0.60;;;29.60;59.30;;;;;;5026207;28;20065;-86
2023/10/23 12:15:12;;;;;;;1.92;0.80;;;29.80;60.00;;;;;;5031255;28;20400;-86
2023/10/23 12:17:39;;;;;;;3.13;0.95;;;29.80;57.80;;;;;;5032923;28;20038;-86
2023/10/23 12:20:09;;;;;;;2.67;0.82;;;29.90;56.70;;;;;;5023946;28;20064;-86
2023/10/23 12:22:39;;;;;;;1.42;0.60;;;30.00;58.70;;;;;;5025223;28;20462;-86
2023/10/23 12:25:05;;;;;;;2.78;0.73;;;30.10;58.10;;;;;;5026848;28;20025;-86
2023/10/23 12:27:34;;;;;;;3.25;1.00;;;30.10;55.90;;;;;;5025307;28;20014;-85
2023/10/23 13:02:16;;;;;;;10.95;1.27;;;28.10;58.50;;;;;;3232997;26;20051;-93
2023/10/23 13:04:43;;;;;;;1.88;0.98;;;27.70;59.00;;;;;;4950551;28;20031;-93
2023/10/23 13:07:10;;;;;;;3.53;0.80;;;27.30;59.20;;;;;;4973604;28;20061;-92
2023/10/23 13:09:35;;;;;;;2.45;0.80;;;27.00;60.20;;;;;;4956090;28;20469;-94
2023/10/23 13:12:06;;;;;;;3.78;1.25;;;26.80;61.50;;;;;;4957866;28;20114;-92
2023/10/23 13:14:33;;;;;;;3.22;1.63;;;26.50;63.30;;;;;;4950427;29;20391;-92
2023/10/23 13:16:59;;;;;;;3.35;1.20;;;26.30;64.70;;;;;;4959653;28;20094;-94